createdAt,value
2022-08-26T00:02:13.909Z,99828.53
2022-08-26T00:04:43.820Z,99823.56
2022-08-26T00:07:12.285Z,99826.03
2022-08-26T00:09:40.632Z,99830.16
2022-08-26T00:12:12.117Z,99832.22
2022-08-26T00:14:41.896Z,99825.63
2022-08-26T00:17:12.096Z,99825.22
2022-08-26T00:19:40.407Z,99822.53
2022-08-26T00:22:08.713Z,99828.09
2022-08-26T00:24:37.071Z,99835.59
2022-08-26T00:27:06.527Z,99820.25
2022-08-26T00:29:37.371Z,99822.72
2022-08-26T00:32:07.280Z,99828.09
2022-08-26T00:34:39.113Z,99825.41
2022-08-26T00:37:09.389Z,99820.25
2022-08-26T00:39:38.681Z,99818.63
2022-08-26T00:42:07.170Z,99810.53
2022-08-26T00:44:35.661Z,99818.63
2022-08-26T00:47:08.983Z,99816.97
2022-08-26T00:49:41.941Z,99811.38
2022-08-26T00:52:13.262Z,99809.50
2022-08-26T00:54:47.935Z,99819.03
2022-08-26T00:57:19.920Z,99811.59
2022-08-26T00:59:59.584Z,99803.06
2022-08-26T01:02:28.892Z,99797.53
2022-08-26T01:05:03.423Z,99804.78
2022-08-26T01:07:34.730Z,99805.16
2022-08-26T01:10:06.568Z,99799.38
2022-08-26T01:12:40.327Z,99801.25
2022-08-26T01:15:11.322Z,99800.84
2022-08-26T01:17:41.273Z,99789.25
2022-08-26T01:20:26.176Z,99790.94
2022-08-26T01:22:58.628Z,99783.03
2022-08-26T01:25:33.469Z,99782.81
2022-08-26T01:28:06.841Z,99773.53
2022-08-26T01:30:36.573Z,99772.69
2022-08-26T01:33:11.731Z,99773.75
2022-08-26T01:35:40.499Z,99797.34
2022-08-26T01:38:11.171Z,99783.50
2022-08-26T01:40:43.824Z,99778.97
2022-08-26T01:43:18.331Z,99781.03
2022-08-26T01:45:48.086Z,99779.97
2022-08-26T01:48:21.374Z,99771.47
2022-08-26T01:50:49.929Z,99786.41
2022-08-26T01:53:21.474Z,99784.53
2022-08-26T01:55:54.332Z,99794.25
2022-08-26T01:58:25.232Z,99785.56
2022-08-26T02:00:54.319Z,99783.72
2022-08-26T02:03:22.698Z,99783.72
2022-08-26T02:06:00.075Z,99774.00
2022-08-26T02:08:33.214Z,99780.19
2022-08-26T02:11:01.880Z,99795.69
2022-08-26T02:13:32.674Z,99788.50
2022-08-26T02:16:03.954Z,99794.88
2022-08-26T02:18:36.914Z,99786.41
2022-08-26T02:21:06.815Z,99791.59
2022-08-26T02:23:36.656Z,99801.31
2022-08-26T02:26:10.799Z,99795.75
2022-08-26T02:28:45.767Z,99804.22
2022-08-26T02:31:14.447Z,99806.06
2022-08-26T02:33:43.170Z,99800.09
2022-08-26T02:36:12.106Z,99808.16
2022-08-26T02:38:43.389Z,99799.66
2022-08-26T02:41:11.617Z,99803.81
2022-08-26T02:43:39.845Z,99804.66
2022-08-26T02:46:08.506Z,99790.56
2022-08-26T02:48:37.149Z,99796.34
2022-08-26T02:51:05.869Z,99807.34
2022-08-26T02:53:35.625Z,99815.59
2022-08-26T02:56:08.499Z,99812.91
2022-08-26T02:58:37.204Z,99817.84
2022-08-26T03:01:05.888Z,99817.25
2022-08-26T03:03:35.123Z,99841.88
2022-08-26T03:06:03.472Z,99832.78
2022-08-26T03:08:31.765Z,99858.88
2022-08-26T03:11:01.575Z,99851.41
2022-08-26T03:13:31.547Z,99857.00
2022-08-26T03:16:02.806Z,99849.34
2022-08-26T03:18:31.414Z,99849.75
2022-08-26T03:21:00.371Z,99847.47
2022-08-26T03:23:28.730Z,99844.00
2022-08-26T03:25:57.075Z,99847.28
2022-08-26T03:28:27.191Z,99843.16
2022-08-26T03:30:57.183Z,99843.78
2022-08-26T03:33:26.254Z,99846.88
2022-08-26T03:35:54.411Z,99847.66
2022-08-26T03:38:25.277Z,99845.22
2022-08-26T03:40:53.615Z,99855.31
2022-08-26T03:43:22.532Z,99838.16
2022-08-26T03:45:51.271Z,99842.69
2022-08-26T03:48:21.097Z,99843.75
2022-08-26T03:50:49.833Z,99859.88
2022-08-26T03:53:20.558Z,99843.78
2022-08-26T03:55:48.685Z,99824.53
2022-08-26T03:58:21.654Z,99840.66
2022-08-26T04:00:50.128Z,99829.69
2022-08-26T04:03:39.230Z,99842.72
2022-08-26T04:06:08.234Z,99829.50
2022-08-26T04:08:37.992Z,99836.94
2022-08-26T04:11:07.774Z,99831.97
2022-08-26T04:13:36.365Z,99835.09
2022-08-26T04:16:05.495Z,99825.16
2022-08-26T04:18:38.095Z,99823.72
2022-08-26T04:21:15.622Z,99822.91
2022-08-26T04:23:47.068Z,99838.63
2022-08-26T04:26:16.976Z,99841.50
2022-08-26T04:28:45.151Z,99823.94
2022-08-26T04:31:14.806Z,99823.31
2022-08-26T04:33:46.628Z,99829.09
2022-08-26T04:36:15.367Z,99823.13
2022-08-26T04:38:44.645Z,99819.19
2022-08-26T04:41:15.582Z,99826.22
2022-08-26T04:43:45.848Z,99841.06
2022-08-26T04:46:17.627Z,99841.53
2022-08-26T04:48:49.159Z,99838.22
2022-08-26T04:51:17.447Z,99837.38
2022-08-26T04:53:46.353Z,99845.22
2022-08-26T04:56:16.754Z,99848.94
2022-08-26T04:58:45.121Z,99839.44
2022-08-26T05:01:13.720Z,99837.59
2022-08-26T05:03:43.561Z,99837.78
2022-08-26T05:06:13.743Z,99828.69
2022-08-26T05:08:42.276Z,99829.09
2022-08-26T05:11:11.795Z,99825.59
2022-08-26T05:13:40.497Z,99831.56
2022-08-26T05:16:11.663Z,99830.56
2022-08-26T05:18:41.646Z,99833.66
2022-08-26T05:21:20.153Z,99842.13
2022-08-26T05:23:49.519Z,99823.75
2022-08-26T05:26:18.077Z,99837.56
2022-08-26T05:28:54.912Z,99836.53
2022-08-26T05:31:26.379Z,99862.16
2022-08-26T05:33:54.845Z,99842.13
2022-08-26T05:36:27.062Z,99829.53
2022-08-26T05:38:55.804Z,99834.69
2022-08-26T05:41:36.612Z,99850.38
2022-08-26T05:44:09.515Z,99824.16
2022-08-26T05:46:38.923Z,99841.31
2022-08-26T05:49:12.238Z,99831.19
2022-08-26T05:51:47.675Z,99836.56
2022-08-26T05:54:22.084Z,99848.91
2022-08-26T05:56:52.008Z,99834.25
2022-08-26T05:59:24.130Z,99839.22
2022-08-26T06:01:54.861Z,99843.13
2022-08-26T06:04:24.767Z,99842.53
2022-08-26T06:06:56.987Z,99846.25
2022-08-26T06:09:25.505Z,99852.66
2022-08-26T06:11:56.033Z,99855.56
2022-08-26T06:14:26.038Z,99860.72
2022-08-26T06:16:55.124Z,99873.34
2022-08-26T06:19:23.512Z,99870.03
2022-08-26T06:21:54.048Z,99883.25
2022-08-26T06:24:41.642Z,99876.22
2022-08-26T06:27:13.942Z,99871.25
2022-08-26T06:29:43.713Z,99874.34
2022-08-26T06:32:11.923Z,99884.91
2022-08-26T06:34:40.267Z,99891.09
2022-08-26T06:37:09.544Z,99880.97
2022-08-26T06:39:40.201Z,99891.50
2022-08-26T06:42:11.885Z,99887.38
2022-08-26T06:44:44.707Z,99887.38
2022-08-26T06:47:13.710Z,99902.03
2022-08-26T06:49:41.996Z,99899.75
2022-08-26T06:52:12.567Z,99896.66
2022-08-26T06:54:44.275Z,99910.09
2022-08-26T06:57:14.295Z,99905.97
2022-08-26T06:59:45.205Z,99913.81
2022-08-26T07:02:13.775Z,99900.81
2022-08-26T07:04:42.415Z,99910.09
2022-08-26T07:07:14.265Z,99906.78
2022-08-26T07:09:43.917Z,99914.66
2022-08-26T07:12:12.257Z,99910.09
2022-08-26T07:14:41.627Z,99907.63
2022-08-26T07:17:16.171Z,99895.44
2022-08-26T07:19:44.771Z,99904.50
2022-08-26T07:22:13.975Z,99900.19
2022-08-26T07:24:43.944Z,99894.38
2022-08-26T07:27:15.639Z,99898.94
2022-08-26T07:29:44.985Z,99923.31
2022-08-26T07:32:14.685Z,99877.44
2022-08-26T07:34:44.076Z,99894.59
2022-08-26T07:37:12.361Z,99899.75
2022-08-26T07:39:41.821Z,99894.38
2022-08-26T07:42:14.984Z,99892.34
2022-08-26T07:44:43.941Z,99891.50
2022-08-26T07:47:25.515Z,99886.97
2022-08-26T07:49:55.525Z,99884.28
2022-08-26T07:52:26.753Z,99886.13
2022-08-26T07:54:56.219Z,99877.03
2022-08-26T07:57:26.376Z,99881.59
2022-08-26T07:59:56.310Z,99884.88
2022-08-26T08:02:26.754Z,99877.44
2022-08-26T08:04:56.897Z,99875.78
2022-08-26T08:07:44.676Z,99868.75
2022-08-26T08:10:16.194Z,99887.78
2022-08-26T08:12:46.402Z,99891.88
2022-08-26T08:15:15.562Z,99879.50
2022-08-26T08:17:44.183Z,99890.25
2022-08-26T08:20:14.156Z,99890.03
2022-08-26T08:22:43.469Z,99887.34
2022-08-26T08:25:11.679Z,99886.53
2022-08-26T08:27:41.769Z,99884.88
2022-08-26T08:30:13.762Z,99895.22
2022-08-26T08:32:43.769Z,99881.56
2022-08-26T08:35:13.911Z,99889.84
2022-08-26T08:37:42.773Z,99873.72
2022-08-26T08:40:13.400Z,99870.41
2022-08-26T08:42:47.343Z,99880.72
2022-08-26T08:45:23.593Z,99880.72
2022-08-26T08:47:56.751Z,99867.50
2022-08-26T08:50:29.796Z,99869.19
2022-08-26T08:53:09.043Z,99869.59
2022-08-26T08:56:03.512Z,99864.22
2022-08-26T08:58:46.390Z,99863.81
2022-08-26T09:01:31.573Z,99863.81
2022-08-26T09:04:20.827Z,99857.59
2022-08-26T09:06:53.043Z,99854.28
2022-08-26T09:09:27.343Z,99855.94
2022-08-26T09:11:58.841Z,99854.69
2022-08-26T09:14:28.341Z,99860.47
2022-08-26T09:17:06.286Z,99858.41
2022-08-26T09:19:41.551Z,99856.75
2022-08-26T09:22:10.347Z,99855.72
2022-08-26T09:24:48.352Z,99860.47
2022-08-26T09:27:37.597Z,99859.44
2022-08-26T09:30:06.991Z,99866.06
2022-08-26T09:32:36.346Z,99855.31
2022-08-26T09:35:08.681Z,99859.84
2022-08-26T09:37:40.686Z,99868.75
2022-08-26T09:40:24.495Z,99860.03
2022-08-26T09:43:13.756Z,99855.09
2022-08-26T09:45:50.806Z,99847.66
2022-08-26T09:48:32.287Z,99848.69
2022-08-26T09:51:05.747Z,99841.66
2022-08-26T09:53:37.715Z,99844.34
2022-08-26T09:56:16.731Z,99853.03
2022-08-26T09:58:47.417Z,99847.44
2022-08-26T10:01:26.909Z,99840.22
2022-08-26T10:04:08.807Z,99847.25
2022-08-26T10:06:41.679Z,99840.44
2022-08-26T10:09:13.917Z,99850.56
2022-08-26T10:11:45.852Z,99846.03
2022-08-26T10:14:20.718Z,99838.38
2022-08-26T10:16:54.589Z,99837.97
2022-08-26T10:19:53.595Z,99826.19
2022-08-26T10:22:25.861Z,99839.00
2022-08-26T10:24:58.704Z,99832.19
2022-08-26T10:27:35.905Z,99837.97
2022-08-26T10:30:08.888Z,99832.59
2022-08-26T10:32:42.084Z,99830.94
2022-08-26T10:35:16.242Z,99839.81
2022-08-26T10:37:49.542Z,99840.25
2022-08-26T10:40:21.734Z,99832.38
2022-08-26T10:42:56.715Z,99836.09
2022-08-26T10:45:28.419Z,99833.81
2022-08-26T10:48:02.513Z,99836.09
2022-08-26T10:50:37.351Z,99838.16
2022-08-26T10:53:15.483Z,99836.53
2022-08-26T10:55:54.780Z,99835.25
2022-08-26T10:58:44.650Z,99834.88
2022-08-26T11:01:40.667Z,99836.75
2022-08-26T11:04:22.616Z,99830.31
2022-08-26T11:07:35.248Z,99839.59
2022-08-26T11:10:07.499Z,99839.19
2022-08-26T11:12:57.086Z,99843.13
2022-08-26T11:16:10.565Z,99848.50
2022-08-26T11:18:48.919Z,99835.06
2022-08-26T11:22:06.249Z,99840.22
2022-08-26T11:25:01.690Z,99841.66
2022-08-26T11:28:04.079Z,99838.13
2022-08-26T11:30:56.821Z,99837.72
2022-08-26T11:33:59.636Z,99825.50
2022-08-26T11:37:00.079Z,99830.28
2022-08-26T11:39:36.578Z,99819.94
2022-08-26T11:42:22.280Z,99824.91
2022-08-26T11:44:51.697Z,99821.00
2022-08-26T11:47:28.815Z,99822.44
2022-08-26T11:50:13.907Z,99819.16
2022-08-26T11:52:44.243Z,99813.75
2022-08-26T11:55:16.830Z,99810.63
2022-08-26T11:57:52.328Z,99808.16
2022-08-26T12:00:23.450Z,99813.31
2022-08-26T12:02:52.762Z,99798.03
2022-08-26T12:05:29.592Z,99787.28
2022-08-26T12:08:05.550Z,99805.69
2022-08-26T12:10:36.015Z,99800.94
2022-08-26T12:13:07.804Z,99805.25
2022-08-26T12:15:36.931Z,99804.44
2022-08-26T12:18:29.371Z,99788.72
2022-08-26T12:21:01.339Z,99815.59
2022-08-26T12:23:41.782Z,99796.97
2022-08-26T12:26:15.349Z,99799.03
2022-08-26T12:28:51.343Z,99805.22
2022-08-26T12:31:31.313Z,99795.50
2022-08-26T12:34:01.746Z,99815.34
2022-08-26T12:36:33.358Z,99814.50
2022-08-26T12:39:10.536Z,99805.41
2022-08-26T12:41:41.696Z,99787.81
2022-08-26T12:44:38.884Z,99797.53
2022-08-26T12:47:13.651Z,99797.53
2022-08-26T12:49:42.693Z,99795.88
2022-08-26T12:52:30.168Z,99792.56
2022-08-26T12:55:01.544Z,99792.56
2022-08-26T12:57:35.292Z,99781.81
2022-08-26T13:00:30.180Z,99783.91
2022-08-26T13:02:59.245Z,99784.28
2022-08-26T13:05:33.244Z,99787.63
2022-08-26T13:08:14.585Z,99785.56
2022-08-26T13:10:46.766Z,99780.97
2022-08-26T13:13:15.391Z,99788.00
2022-08-26T13:15:45.180Z,99779.91
2022-08-26T13:18:13.603Z,99785.09
2022-08-26T13:20:44.971Z,99793.38
2022-08-26T13:23:13.739Z,99790.69
2022-08-26T13:25:42.488Z,99795.66
2022-08-26T13:28:10.812Z,99800.00
2022-08-26T13:30:40.081Z,99796.47
2022-08-26T13:33:12.348Z,99796.25
2022-08-26T13:35:43.087Z,99789.88
2022-08-26T13:38:33.009Z,99782.66
2022-08-26T13:41:02.849Z,99773.16
2022-08-26T13:43:31.491Z,99773.97
2022-08-26T13:46:01.529Z,99777.47
2022-08-26T13:48:34.118Z,99782.88
2022-08-26T13:51:03.584Z,99792.16
2022-08-26T13:53:37.306Z,99795.88
2022-08-26T13:56:08.039Z,99803.31
2022-08-26T13:58:38.879Z,99812.81
2022-08-26T14:01:07.388Z,99821.34
2022-08-26T14:03:37.498Z,99827.72
2022-08-26T14:06:06.106Z,99822.16
2022-08-26T14:08:34.512Z,99830.84
2022-08-26T14:11:02.967Z,99838.94
2022-08-26T14:13:31.374Z,99832.72
2022-08-26T14:16:01.776Z,99831.50
2022-08-26T14:18:33.419Z,99832.31
2022-08-26T14:21:03.752Z,99830.63
2022-08-26T14:23:32.124Z,99826.09
2022-08-26T14:26:01.383Z,99818.66
2022-08-26T14:28:29.792Z,99812.81
2022-08-26T14:30:59.744Z,99824.41
2022-08-26T14:33:32.454Z,99829.78
2022-08-26T14:36:16.220Z,99815.28
2022-08-26T14:38:44.584Z,99812.00
2022-08-26T14:41:13.970Z,99806.00
2022-08-26T14:43:48.075Z,99785.56
2022-08-26T14:46:17.566Z,99763.66
2022-08-26T14:48:46.033Z,99750.84
2022-08-26T14:51:15.834Z,99734.72
2022-08-26T14:54:01.590Z,99725.88
2022-08-26T14:56:32.190Z,99714.50
2022-08-26T14:59:00.565Z,99718.00
2022-08-26T15:01:31.079Z,99726.72
2022-08-26T15:04:00.019Z,99728.34
2022-08-26T15:06:31.200Z,99727.53
2022-08-26T15:08:59.995Z,99732.69
2022-08-26T15:11:28.768Z,99746.97
2022-08-26T15:13:57.753Z,99757.88
2022-08-26T15:16:26.152Z,99763.47
2022-08-26T15:18:54.990Z,99761.56
2022-08-26T15:21:23.519Z,99761.38
2022-08-26T15:23:54.953Z,99766.38
2022-08-26T15:26:24.222Z,99763.25
2022-08-26T15:28:52.835Z,99760.78
2022-08-26T15:31:31.146Z,99756.81
2022-08-26T15:34:00.748Z,99752.50
2022-08-26T15:36:29.137Z,99747.91
2022-08-26T15:39:00.535Z,99755.34
2022-08-26T15:41:29.806Z,99754.13
2022-08-26T15:44:01.601Z,99752.88
2022-08-26T15:46:32.443Z,99757.03
2022-08-26T15:49:01.013Z,99760.34
2022-08-26T15:51:32.502Z,99766.31
2022-08-26T15:54:03.659Z,99771.09
2022-08-26T15:56:35.272Z,99764.69
2022-08-26T15:59:05.427Z,99765.50
2022-08-26T16:01:34.273Z,99771.91
2022-08-26T16:04:02.751Z,99776.84
2022-08-26T16:06:33.732Z,99770.69
2022-08-26T16:09:03.812Z,99774.78
2022-08-26T16:11:32.320Z,99776.44
2022-08-26T16:14:00.743Z,99778.53
2022-08-26T16:16:29.224Z,99794.25
2022-08-26T16:18:57.631Z,99791.34
2022-08-26T16:21:28.782Z,99772.31
2022-08-26T16:23:58.169Z,99769.84
2022-08-26T16:26:29.972Z,99773.59
2022-08-26T16:28:58.452Z,99778.59
2022-08-26T16:31:26.922Z,99792.66
2022-08-26T16:33:55.239Z,99790.34
2022-08-26T16:36:23.631Z,99783.53
2022-08-26T16:38:55.516Z,99781.69
2022-08-26T16:41:25.379Z,99769.03
2022-08-26T16:43:55.263Z,99783.13
2022-08-26T16:46:25.962Z,99776.09
2022-08-26T16:48:55.231Z,99767.84
2022-08-26T16:51:24.297Z,99770.69
2022-08-26T16:53:53.643Z,99757.66
2022-08-26T16:56:23.879Z,99752.28
2022-08-26T16:59:04.344Z,99750.84
2022-08-26T17:01:32.787Z,99758.72
2022-08-26T17:04:01.217Z,99760.34
2022-08-26T17:06:29.978Z,99761.59
2022-08-26T17:08:58.334Z,99758.28
2022-08-26T17:11:26.776Z,99760.34
2022-08-26T17:13:55.151Z,99760.34
2022-08-26T17:16:27.059Z,99763.72
2022-08-26T17:18:57.257Z,99758.75
2022-08-26T17:21:26.717Z,99765.75
2022-08-26T17:23:56.550Z,99765.75
2022-08-26T17:26:25.000Z,99759.34
2022-08-26T17:28:53.591Z,99758.56
2022-08-26T17:31:22.817Z,99762.47
2022-08-26T17:33:53.553Z,99764.28
2022-08-26T17:36:28.027Z,99767.00
2022-08-26T17:38:57.564Z,99767.00
2022-08-26T17:41:25.761Z,99760.16
2022-08-26T17:43:54.533Z,99764.09
2022-08-26T17:46:22.897Z,99766.63
2022-08-26T17:48:52.596Z,99769.25
2022-08-26T17:51:22.042Z,99772.00
2022-08-26T17:53:51.106Z,99768.22
2022-08-26T17:56:24.019Z,99755.81
2022-08-26T17:58:52.764Z,99756.22
2022-08-26T18:01:21.932Z,99760.81
2022-08-26T18:03:50.977Z,99755.59
2022-08-26T18:06:21.928Z,99752.91
2022-08-26T18:08:51.720Z,99747.75
2022-08-26T18:11:24.566Z,99747.53
2022-08-26T18:13:53.325Z,99743.00
2022-08-26T18:16:22.629Z,99734.31
2022-08-26T18:18:53.549Z,99739.31
2022-08-26T21:18:36.962Z,99693.03
2022-08-26T21:21:06.313Z,99674.41
2022-08-26T21:23:35.238Z,99680.78
2022-08-26T21:26:04.372Z,99672.94
2022-08-26T21:28:33.191Z,99675.84
2022-08-26T21:31:04.471Z,99674.41
2022-08-26T21:33:33.014Z,99683.91
2022-08-26T21:36:03.043Z,99676.91
2022-08-26T21:38:32.113Z,99677.16
2022-08-26T21:41:00.498Z,99674.06
2022-08-26T21:43:35.490Z,99674.88
2022-08-26T21:46:11.690Z,99666.00
2022-08-26T21:48:40.903Z,99678.00
2022-08-26T21:51:10.666Z,99672.00
2022-08-26T21:53:39.204Z,99658.94
2022-08-26T21:56:09.352Z,99663.31
2022-08-26T21:58:37.910Z,99659.97
2022-08-26T22:01:10.111Z,99664.94
2022-08-26T22:03:44.733Z,99661.03
2022-08-26T22:06:19.020Z,99656.34
2022-08-26T22:08:47.647Z,99654.22
2022-08-26T22:11:16.451Z,99653.22
2022-08-26T22:13:45.778Z,99659.19
2022-08-26T22:16:14.576Z,99654.66
2022-08-26T22:18:43.981Z,99645.34
2022-08-26T22:21:15.195Z,99643.69
2022-08-26T22:23:46.018Z,99650.91
2022-08-26T22:26:20.567Z,99645.75
2022-08-26T22:28:58.601Z,99653.22
2022-08-26T22:31:37.304Z,99651.34
2022-08-26T22:34:09.372Z,99652.78
2022-08-26T22:36:39.772Z,99646.97
2022-08-26T22:39:15.180Z,99646.97
2022-08-26T22:41:45.159Z,99642.22
2022-08-26T22:44:14.043Z,99644.75
2022-08-26T22:46:43.935Z,99636.06
2022-08-26T22:49:15.997Z,99641.44
2022-08-26T22:51:44.608Z,99636.06
2022-08-26T22:54:14.795Z,99652.59
2022-08-26T22:56:43.769Z,99633.16
2022-08-26T22:59:13.022Z,99640.00
2022-08-26T23:01:44.784Z,99631.09
2022-08-26T23:04:13.246Z,99634.84
2022-08-26T23:06:47.806Z,99632.78
2022-08-26T23:09:19.424Z,99623.31
2022-08-26T23:11:48.981Z,99627.41
2022-08-26T23:14:18.668Z,99633.63
2022-08-26T23:16:47.813Z,99630.31
2022-08-26T23:19:18.120Z,99625.75
2022-08-26T23:21:46.614Z,99622.88
2022-08-26T23:24:15.441Z,99628.69
2022-08-26T23:26:46.587Z,99628.84
2022-08-26T23:29:15.778Z,99621.44
2022-08-26T23:31:44.118Z,99623.69
2022-08-26T23:34:30.413Z,99625.38
2022-08-26T23:36:59.194Z,99627.00
2022-08-26T23:39:28.528Z,99635.72
2022-08-26T23:41:58.351Z,99632.84
2022-08-26T23:44:27.125Z,99633.63
2022-08-26T23:46:55.606Z,99634.06
2022-08-26T23:49:24.471Z,99631.56
2022-08-26T23:52:10.445Z,99639.81
2022-08-26T23:54:39.568Z,99636.75
2022-08-26T23:57:09.665Z,99630.34
2022-08-26T23:59:38.722Z,99635.53
